createdAt,value
2023-11-09T00:00:01.827Z,8.13
2023-11-09T00:02:36.063Z,8.11
2023-11-09T00:05:07.788Z,8.11
2023-11-09T00:07:38.593Z,8.10
2023-11-09T00:10:11.775Z,8.11
2023-11-09T00:12:42.807Z,8.13
2023-11-09T00:15:16.584Z,8.17
2023-11-09T00:17:47.172Z,8.21
2023-11-09T00:20:26.382Z,8.24
2023-11-09T00:22:56.771Z,8.23
2023-11-09T00:25:28.233Z,8.23
2023-11-09T00:27:58.590Z,8.24
2023-11-09T00:30:29.723Z,8.25
2023-11-09T00:33:00.304Z,8.28
2023-11-09T00:35:34.015Z,8.29
2023-11-09T00:38:06.024Z,8.29
2023-11-09T00:40:36.998Z,8.28
2023-11-09T00:43:17.740Z,8.25
2023-11-09T00:45:48.454Z,8.22
2023-11-09T00:48:19.198Z,8.22
2023-11-09T00:50:49.711Z,8.26
2023-11-09T00:53:27.333Z,8.29
2023-11-09T00:55:57.853Z,8.29
2023-11-09T00:58:28.472Z,8.28
2023-11-09T01:00:59.738Z,8.24
2023-11-09T01:03:30.127Z,8.25
2023-11-09T01:06:01.651Z,8.29
2023-11-09T01:08:32.128Z,8.35
2023-11-09T01:11:07.138Z,8.43
2023-11-09T01:13:38.627Z,8.50
2023-11-09T01:16:10.092Z,8.59
2023-11-09T01:18:41.085Z,8.67
2023-11-09T01:21:11.588Z,8.73
2023-11-09T01:23:42.184Z,8.79
2023-11-09T01:26:13.203Z,8.81
2023-11-09T01:28:43.839Z,8.83
2023-11-09T01:31:14.559Z,8.88
2023-11-09T01:33:45.063Z,8.90
2023-11-09T01:36:18.277Z,8.91
2023-11-09T01:38:48.760Z,8.93
2023-11-09T01:41:20.020Z,8.95
2023-11-09T01:43:59.337Z,8.96
2023-11-09T01:46:31.594Z,8.96
2023-11-09T01:49:03.048Z,8.95
2023-11-09T01:51:34.725Z,8.94
2023-11-09T01:54:05.786Z,8.97
2023-11-09T01:56:37.161Z,8.99
2023-11-09T01:59:06.361Z,9.01
2023-11-09T02:01:38.503Z,9.02
2023-11-09T02:04:10.359Z,9.03
2023-11-09T02:06:46.128Z,9.07
2023-11-09T02:09:16.706Z,9.10
2023-11-09T02:11:50.749Z,9.13
2023-11-09T02:14:24.692Z,9.16
2023-11-09T02:16:55.981Z,9.20
2023-11-09T02:19:26.572Z,9.23
2023-11-09T02:21:58.101Z,9.23
2023-11-09T02:24:28.797Z,9.23
2023-11-09T02:27:00.388Z,9.22
2023-11-09T02:29:30.839Z,9.21
2023-11-09T02:32:02.242Z,9.18
2023-11-09T02:34:34.115Z,9.19
2023-11-09T02:37:09.666Z,9.17
2023-11-09T02:39:42.366Z,9.13
2023-11-09T02:42:13.388Z,9.11
2023-11-09T02:44:43.837Z,9.12
2023-11-09T02:47:14.245Z,9.13
2023-11-09T02:49:47.872Z,9.11
2023-11-09T02:52:19.509Z,9.09
2023-11-09T02:54:52.470Z,9.08
2023-11-09T02:57:22.907Z,9.05
2023-11-09T02:59:53.634Z,9.01
2023-11-09T03:02:24.167Z,8.97
2023-11-09T03:04:54.658Z,8.95
2023-11-09T03:07:26.625Z,8.92
2023-11-09T03:09:57.208Z,8.89
2023-11-09T03:12:28.428Z,8.87
2023-11-09T03:14:57.419Z,8.85
2023-11-09T03:17:29.236Z,8.80
2023-11-09T03:20:00.679Z,8.76
2023-11-09T03:22:31.371Z,8.74
2023-11-09T03:25:05.679Z,8.70
2023-11-09T03:27:36.124Z,8.64
2023-11-09T03:30:07.565Z,8.59
2023-11-09T03:32:38.105Z,8.55
2023-11-09T03:35:09.437Z,8.51
2023-11-09T03:37:40.274Z,8.45
2023-11-09T03:40:13.997Z,8.37
2023-11-09T03:42:44.808Z,8.27
2023-11-09T03:45:15.428Z,8.20
2023-11-09T03:47:45.963Z,8.17
2023-11-09T03:50:16.857Z,8.17
2023-11-09T03:52:48.183Z,8.19
2023-11-09T03:55:17.260Z,8.19
2023-11-09T03:57:47.783Z,8.22
2023-11-09T04:00:19.861Z,8.25
2023-11-09T04:02:51.088Z,8.25
2023-11-09T04:05:23.802Z,8.28
2023-11-09T04:08:03.754Z,8.32
2023-11-09T04:10:37.352Z,8.35
2023-11-09T04:13:07.770Z,8.38
2023-11-09T04:15:41.608Z,8.38
2023-11-09T04:18:12.713Z,8.40
2023-11-09T04:20:43.352Z,8.40
2023-11-09T04:23:34.068Z,8.40
2023-11-09T04:26:04.756Z,8.39
2023-11-09T04:28:55.412Z,8.37
2023-11-09T04:31:30.111Z,8.38
2023-11-09T04:34:09.442Z,8.36
2023-11-09T04:36:54.090Z,8.34
2023-11-09T04:39:30.985Z,8.31
2023-11-09T04:42:05.650Z,8.29
2023-11-09T04:44:38.039Z,8.27
2023-11-09T04:47:22.948Z,8.23
2023-11-09T04:49:59.814Z,8.25
2023-11-09T04:52:58.627Z,8.25
2023-11-09T04:55:33.977Z,8.24
2023-11-09T04:58:32.487Z,8.24
2023-11-09T05:01:46.311Z,8.24
2023-11-09T05:04:34.620Z,8.24
2023-11-09T05:07:13.617Z,8.25
2023-11-09T05:09:46.895Z,8.24
2023-11-09T05:12:18.229Z,8.22
2023-11-09T05:14:49.310Z,8.21
2023-11-09T05:17:27.353Z,8.20
2023-11-09T05:20:12.298Z,8.21
2023-11-09T05:22:42.787Z,8.20
2023-11-09T05:25:17.563Z,8.21
2023-11-09T05:28:08.405Z,8.24
2023-11-09T05:30:39.557Z,8.26
2023-11-09T05:33:10.138Z,8.28
2023-11-09T05:35:43.986Z,8.29
2023-11-09T05:38:23.346Z,8.28
2023-11-09T05:41:12.839Z,8.29
2023-11-09T05:43:53.520Z,8.29
2023-11-09T05:46:44.223Z,8.29
2023-11-09T05:49:25.970Z,8.27
2023-11-09T05:51:57.270Z,8.26
2023-11-09T05:54:26.295Z,8.23
2023-11-09T05:56:56.982Z,8.22
2023-11-09T05:59:27.666Z,8.22
2023-11-09T06:02:00.969Z,8.24
2023-11-09T06:04:36.545Z,8.25
2023-11-09T06:07:18.411Z,8.26
2023-11-09T06:09:53.138Z,8.27
2023-11-09T06:12:35.040Z,8.28
2023-11-09T06:15:09.913Z,8.30
2023-11-09T06:18:00.797Z,8.35
2023-11-09T06:20:31.517Z,8.41
2023-11-09T06:23:02.376Z,8.45
2023-11-09T06:25:36.044Z,8.49
2023-11-09T06:28:27.392Z,8.55
2023-11-09T06:31:05.445Z,8.57
2023-11-09T06:33:39.371Z,8.61
2023-11-09T06:36:10.885Z,8.64
2023-11-09T06:38:50.730Z,8.65
2023-11-09T06:41:31.584Z,8.64
2023-11-09T06:44:02.613Z,8.63
2023-11-09T06:46:39.037Z,8.62
2023-11-09T06:49:29.965Z,8.63
2023-11-09T06:52:00.518Z,8.62
2023-11-09T06:54:31.229Z,8.61
2023-11-09T06:57:22.471Z,8.60
2023-11-09T06:59:55.178Z,8.59
2023-11-09T07:02:35.396Z,8.58
2023-11-09T07:05:16.195Z,8.56
2023-11-09T07:08:07.100Z,8.53
2023-11-09T07:10:59.596Z,8.47
2023-11-09T07:13:50.248Z,8.41
2023-11-09T07:16:23.939Z,8.36
2023-11-09T07:19:05.749Z,8.31
2023-11-09T07:21:46.479Z,8.25
2023-11-09T07:24:18.775Z,8.18
2023-11-09T07:26:49.339Z,8.08
2023-11-09T07:29:40.631Z,7.96
2023-11-09T07:32:11.982Z,7.85
2023-11-09T07:35:02.847Z,7.72
2023-11-09T07:37:36.196Z,7.61
2023-11-09T07:40:13.517Z,7.52
2023-11-09T07:42:47.234Z,7.44
2023-11-09T07:45:21.871Z,7.37
2023-11-09T07:47:52.596Z,7.30
2023-11-09T07:50:25.122Z,7.24
2023-11-09T07:53:16.270Z,7.18
2023-11-09T07:55:56.904Z,7.14
2023-11-09T07:58:54.997Z,7.13
2023-11-09T08:01:26.153Z,7.14
2023-11-09T08:03:56.877Z,7.17
2023-11-09T08:06:27.539Z,7.22
2023-11-09T08:09:00.984Z,7.29
2023-11-09T08:11:43.970Z,7.37
2023-11-09T08:14:34.783Z,7.42
2023-11-09T08:17:13.699Z,7.45
2023-11-09T08:19:50.811Z,7.50
2023-11-09T08:22:21.576Z,7.56
2023-11-09T08:24:52.152Z,7.63
2023-11-09T08:27:26.853Z,7.70
2023-11-09T08:29:58.570Z,7.74
2023-11-09T08:32:49.851Z,7.79
2023-11-09T08:35:25.433Z,7.84
2023-11-09T08:37:58.877Z,7.88
2023-11-09T08:40:43.575Z,7.91
2023-11-09T08:43:17.131Z,7.94
2023-11-09T08:45:58.988Z,7.95
2023-11-09T08:48:49.697Z,7.97
2023-11-09T08:51:30.477Z,7.98
2023-11-09T08:54:12.155Z,7.99
2023-11-09T08:56:42.715Z,8.02
2023-11-09T08:59:25.791Z,8.03
2023-11-09T09:01:57.363Z,8.03
2023-11-09T09:04:49.993Z,8.00
2023-11-09T09:07:24.977Z,7.96
2023-11-09T09:09:59.642Z,7.91
2023-11-09T09:12:30.775Z,7.87
2023-11-09T09:15:14.624Z,7.84
2023-11-09T09:17:46.841Z,7.82
2023-11-09T09:20:21.290Z,7.81
2023-11-09T09:22:55.917Z,7.82
2023-11-09T09:25:27.263Z,7.83
2023-11-09T09:27:57.972Z,7.87
2023-11-09T09:30:30.928Z,7.93
2023-11-09T09:33:04.927Z,8.01
2023-11-09T09:35:47.853Z,8.09
2023-11-09T09:38:18.458Z,8.17
2023-11-09T09:40:52.663Z,8.26
2023-11-09T09:43:25.704Z,8.33
2023-11-09T09:46:01.733Z,8.40
2023-11-09T09:48:41.581Z,8.46
2023-11-09T09:51:14.819Z,8.54
2023-11-09T09:53:46.257Z,8.61
2023-11-09T09:56:22.960Z,8.67
2023-11-09T09:59:03.255Z,8.72
2023-11-09T10:01:36.732Z,8.78
2023-11-09T10:04:10.831Z,8.84
2023-11-09T10:06:52.885Z,8.91
2023-11-09T10:09:26.444Z,8.96
2023-11-09T10:11:57.023Z,9.01
2023-11-09T10:14:29.705Z,9.08
2023-11-09T10:17:00.700Z,9.09
2023-11-09T10:19:48.937Z,9.09
2023-11-09T10:22:21.237Z,9.08
2023-11-09T10:24:56.094Z,9.11
2023-11-09T10:27:31.300Z,9.16
2023-11-09T10:30:03.358Z,9.21
2023-11-09T10:32:46.194Z,9.26
2023-11-09T10:35:19.306Z,9.28
2023-11-09T10:37:52.681Z,9.26
2023-11-09T10:40:29.170Z,9.22
2023-11-09T10:43:15.622Z,9.19
2023-11-09T10:45:59.037Z,9.17
2023-11-09T10:48:33.465Z,9.15
2023-11-09T10:51:10.237Z,9.14
2023-11-09T10:53:44.665Z,9.14
2023-11-09T10:56:20.782Z,9.14
2023-11-09T10:58:52.329Z,9.14
2023-11-09T11:01:30.090Z,9.16
2023-11-09T11:04:09.613Z,9.19
2023-11-09T11:06:52.194Z,9.23
2023-11-09T11:09:28.241Z,9.27
2023-11-09T11:12:03.330Z,9.28
2023-11-09T11:14:37.581Z,9.26
2023-11-09T11:17:43.016Z,9.26
2023-11-09T11:20:41.960Z,9.26
2023-11-09T11:23:31.092Z,9.25
2023-11-09T11:26:07.255Z,9.24
2023-11-09T11:28:40.216Z,9.23
2023-11-09T11:31:11.498Z,9.24
2023-11-09T11:33:43.019Z,9.28
2023-11-09T11:36:25.212Z,9.33
2023-11-09T11:39:15.015Z,9.37
2023-11-09T11:41:46.983Z,9.46
2023-11-09T11:44:24.369Z,9.54
2023-11-09T11:47:00.263Z,9.59
2023-11-09T11:49:31.149Z,9.61
2023-11-09T11:52:06.220Z,9.62
2023-11-09T11:54:37.320Z,9.63
2023-11-09T11:57:13.094Z,9.63
2023-11-09T11:59:45.354Z,9.63
2023-11-09T12:02:26.497Z,9.62
2023-11-09T12:04:59.621Z,9.63
2023-11-09T12:07:35.749Z,9.62
2023-11-09T12:10:08.313Z,9.62
2023-11-09T12:12:38.746Z,9.61
2023-11-09T12:15:11.506Z,9.60
2023-11-09T12:17:45.228Z,9.60
2023-11-09T12:20:18.914Z,9.59
2023-11-09T12:22:51.312Z,9.59
2023-11-09T12:25:23.727Z,9.59
2023-11-09T12:27:54.258Z,9.59
2023-11-09T12:30:25.063Z,9.59
2023-11-09T12:32:59.441Z,9.59
2023-11-09T12:35:30.075Z,9.59
2023-11-09T12:38:02.508Z,9.59
2023-11-09T12:40:33.521Z,9.60
2023-11-09T12:43:04.882Z,9.60
2023-11-09T12:45:43.398Z,9.60
2023-11-09T12:48:15.489Z,9.61
2023-11-09T12:50:48.190Z,9.62
2023-11-09T12:53:20.135Z,9.66
2023-11-09T12:55:51.976Z,9.71
2023-11-09T12:58:22.540Z,9.80
2023-11-09T13:00:53.848Z,9.91
2023-11-09T13:03:24.539Z,10.00
2023-11-09T13:05:55.129Z,10.09
2023-11-09T13:08:25.606Z,10.18
2023-11-09T13:10:58.877Z,10.29
2023-11-09T13:13:36.144Z,10.39
2023-11-09T13:16:15.656Z,10.48
2023-11-09T13:18:51.980Z,10.54
2023-11-09T13:21:23.342Z,10.58
2023-11-09T13:24:02.758Z,10.60
2023-11-09T13:26:36.126Z,10.60
2023-11-09T13:29:15.899Z,10.61
2023-11-09T13:31:58.462Z,10.61
2023-11-09T13:34:44.400Z,10.60
2023-11-09T13:37:28.021Z,10.61
2023-11-09T13:40:30.005Z,10.60
2023-11-09T13:43:10.117Z,10.59
2023-11-09T13:45:47.831Z,10.60
2023-11-09T13:48:25.070Z,10.61
2023-11-09T13:50:59.704Z,10.63
2023-11-09T13:53:47.844Z,10.63
2023-11-09T13:56:35.981Z,10.64
2023-11-09T13:59:13.966Z,10.64
2023-11-09T14:01:51.367Z,10.65
2023-11-09T14:04:24.074Z,10.66
2023-11-09T14:06:59.169Z,10.67
2023-11-09T14:09:36.196Z,10.66
2023-11-09T14:12:10.901Z,10.64
2023-11-09T14:14:45.644Z,10.61
2023-11-09T14:17:18.624Z,10.60
2023-11-09T14:19:55.346Z,10.60
2023-11-09T14:22:30.026Z,10.60
2023-11-09T14:25:00.877Z,10.61
2023-11-09T14:27:31.514Z,10.61
2023-11-09T14:30:30.012Z,10.60
2023-11-09T14:33:04.399Z,10.59
2023-11-09T14:35:43.021Z,10.58
2023-11-09T14:38:14.759Z,10.58
2023-11-09T14:40:49.111Z,10.56
2023-11-09T14:43:20.962Z,10.53
2023-11-09T14:46:01.658Z,10.45
2023-11-09T14:48:32.092Z,10.36
2023-11-09T14:51:05.106Z,10.28
2023-11-09T14:53:39.530Z,10.18
2023-11-09T14:56:11.816Z,10.06
2023-11-09T14:58:44.521Z,9.94
2023-11-09T15:01:15.943Z,9.81
2023-11-09T15:03:51.540Z,9.70
2023-11-09T15:06:29.260Z,9.60
2023-11-09T15:09:10.641Z,9.51
2023-11-09T15:11:41.851Z,9.40
2023-11-09T15:14:12.231Z,9.32
2023-11-09T15:16:45.961Z,9.24
2023-11-09T15:19:19.092Z,9.15
2023-11-09T15:21:49.698Z,9.08
2023-11-09T15:24:20.264Z,9.02
2023-11-09T15:26:59.879Z,8.96
2023-11-09T15:29:31.374Z,8.91
2023-11-09T15:32:02.530Z,8.87
2023-11-09T15:34:47.778Z,8.82
2023-11-09T15:37:20.847Z,8.78
2023-11-09T15:40:12.815Z,8.75
2023-11-09T15:42:41.892Z,8.71
2023-11-09T15:45:13.859Z,8.69
2023-11-09T15:47:45.325Z,8.66
2023-11-09T15:50:20.914Z,8.64
2023-11-09T15:52:54.302Z,8.61
2023-11-09T15:55:25.386Z,8.58
2023-11-09T15:57:57.472Z,8.56
2023-11-09T16:00:28.635Z,8.53
2023-11-09T16:02:59.327Z,8.50
2023-11-09T16:05:29.850Z,8.48
2023-11-09T16:08:06.053Z,8.44
2023-11-09T16:10:37.636Z,8.41
2023-11-09T16:13:12.919Z,8.38
2023-11-09T16:15:55.525Z,8.33
2023-11-09T16:18:28.113Z,8.31
2023-11-09T16:21:00.786Z,8.30
2023-11-09T16:23:32.561Z,8.30
2023-11-09T16:26:04.530Z,8.29
2023-11-09T16:28:36.937Z,8.29
2023-11-09T16:31:08.930Z,8.29
2023-11-09T16:33:39.690Z,8.29
2023-11-09T16:36:14.825Z,8.30
2023-11-09T16:38:45.613Z,8.30
2023-11-09T16:41:16.739Z,8.30
2023-11-09T16:43:50.025Z,8.31
2023-11-09T16:46:24.727Z,8.30
2023-11-09T16:48:55.494Z,8.29
2023-11-09T16:51:31.552Z,8.28
2023-11-09T16:54:02.271Z,8.28
2023-11-09T16:56:32.847Z,8.26
2023-11-09T16:59:03.673Z,8.26
2023-11-09T17:01:37.291Z,8.25
2023-11-09T17:04:08.041Z,8.25
2023-11-09T17:06:41.438Z,8.25
2023-11-09T17:09:16.987Z,8.26
2023-11-09T17:11:47.522Z,8.27
2023-11-09T17:14:18.124Z,8.28
2023-11-09T17:16:49.139Z,8.29
2023-11-09T17:19:28.590Z,8.30
2023-11-09T17:22:01.313Z,8.32
2023-11-09T17:24:34.877Z,8.32
2023-11-09T17:27:18.129Z,8.33
2023-11-09T17:29:52.772Z,8.35
2023-11-09T17:32:26.368Z,8.36
2023-11-09T17:34:57.001Z,8.36
2023-11-09T17:37:27.598Z,8.37
2023-11-09T17:40:00.972Z,8.37
2023-11-09T17:42:32.869Z,8.37
2023-11-09T17:45:03.713Z,8.36
2023-11-09T17:47:34.452Z,8.35
2023-11-09T17:50:05.802Z,8.34
2023-11-09T17:52:38.124Z,8.31
2023-11-09T17:55:22.750Z,8.29
2023-11-09T17:57:55.390Z,8.27
2023-11-09T18:00:26.231Z,8.25
2023-11-09T18:02:59.234Z,8.22
2023-11-09T18:05:37.351Z,8.19
2023-11-09T18:08:10.741Z,8.16
2023-11-09T18:10:42.874Z,8.13
2023-11-09T18:13:13.649Z,8.10
2023-11-09T18:16:06.034Z,8.08
2023-11-09T18:18:47.534Z,8.05
2023-11-09T18:21:18.127Z,8.03
2023-11-09T18:23:52.882Z,7.99
2023-11-09T18:26:23.578Z,7.97
2023-11-09T18:28:54.810Z,7.97
2023-11-09T18:31:24.552Z,7.98
2023-11-09T18:33:56.142Z,7.99
2023-11-09T18:36:26.837Z,8.00
2023-11-09T18:38:57.364Z,8.03
2023-11-09T18:41:29.524Z,8.06
2023-11-09T18:44:01.060Z,8.08
2023-11-09T18:46:31.679Z,8.11
2023-11-09T18:51:56.147Z,8.21
2023-11-09T18:54:34.577Z,8.24
2023-11-09T18:57:05.598Z,8.27
2023-11-09T18:59:36.044Z,8.30
2023-11-09T19:02:10.037Z,8.34
2023-11-09T19:04:44.232Z,8.39
2023-11-09T19:07:14.762Z,8.42
2023-11-09T19:09:45.453Z,8.44
2023-11-09T19:12:16.361Z,8.47
2023-11-09T19:14:49.080Z,8.50
2023-11-09T19:17:19.906Z,8.54
2023-11-09T19:19:50.508Z,8.57
2023-11-09T19:24:54.498Z,8.64
2023-11-09T19:27:25.240Z,8.68
2023-11-09T19:29:55.564Z,8.71
2023-11-09T19:32:26.182Z,8.72
2023-11-09T19:34:57.735Z,8.75
2023-11-09T19:37:30.945Z,8.77
2023-11-09T19:40:01.670Z,8.81
2023-11-09T19:42:32.662Z,8.85
2023-11-09T19:45:03.338Z,8.87
2023-11-09T19:47:34.194Z,8.88
2023-11-09T19:50:07.570Z,8.92
2023-11-09T19:52:38.028Z,8.95
2023-11-09T19:55:11.183Z,8.97
2023-11-09T19:57:41.819Z,9.00
2023-11-09T20:00:14.270Z,9.03
2023-11-09T20:02:46.235Z,9.05
2023-11-09T20:05:16.735Z,9.09
2023-11-09T20:07:47.384Z,9.13
2023-11-09T20:10:18.341Z,9.15
2023-11-09T20:12:51.786Z,9.20
2023-11-09T20:15:28.140Z,9.24
2023-11-09T20:18:19.218Z,9.28
2023-11-09T20:20:49.847Z,9.30
2023-11-09T20:23:23.476Z,9.31
2023-11-09T20:25:54.260Z,9.32
2023-11-09T20:28:27.516Z,9.34
2023-11-09T20:30:59.022Z,9.34
2023-11-09T20:33:29.976Z,9.33
2023-11-09T20:36:00.627Z,9.30
2023-11-09T20:38:31.048Z,9.27
2023-11-09T20:41:03.454Z,9.25
2023-11-09T20:43:34.780Z,9.24
2023-11-09T20:46:10.398Z,9.24
2023-11-09T20:48:44.170Z,9.25
2023-11-09T20:51:14.892Z,9.28
2023-11-09T20:53:49.119Z,9.31
2023-11-09T20:56:20.601Z,9.35
2023-11-09T20:58:49.775Z,9.38
2023-11-09T21:01:20.852Z,9.42
2023-11-09T21:03:52.208Z,9.44
2023-11-09T21:06:21.574Z,9.44
2023-11-09T21:08:52.101Z,9.44
2023-11-09T21:11:22.656Z,9.41
2023-11-09T21:13:53.814Z,9.39
2023-11-09T21:16:46.266Z,9.39
2023-11-09T21:19:17.217Z,9.39
2023-11-09T21:21:47.792Z,9.38
2023-11-09T21:24:18.169Z,9.38
2023-11-09T21:26:48.772Z,9.37
2023-11-09T21:29:24.635Z,9.36
2023-11-09T21:31:55.260Z,9.36
2023-11-09T21:34:25.846Z,9.37
2023-11-09T21:36:56.958Z,9.38
2023-11-09T21:39:27.919Z,9.39
2023-11-09T21:41:58.281Z,9.38
2023-11-09T21:44:30.696Z,9.36
2023-11-09T21:47:01.769Z,9.34
2023-11-09T21:49:33.118Z,9.34
2023-11-09T21:52:08.650Z,9.33
2023-11-09T21:54:39.073Z,9.32
2023-11-09T21:57:09.809Z,9.31
2023-11-09T21:59:40.390Z,9.30
2023-11-09T22:02:10.861Z,9.29
2023-11-09T22:04:41.483Z,9.30
2023-11-09T22:07:13.368Z,9.29
2023-11-09T22:09:43.927Z,9.29
2023-11-09T22:12:15.305Z,9.27
2023-11-09T22:14:57.828Z,9.24
2023-11-09T22:17:29.095Z,9.21
2023-11-09T22:19:59.718Z,9.19
2023-11-09T22:22:34.872Z,9.14
2023-11-09T22:25:07.698Z,9.12
2023-11-09T22:27:38.359Z,9.09
2023-11-09T22:30:10.756Z,9.07
2023-11-09T22:32:41.522Z,9.06
2023-11-09T22:35:12.143Z,9.05
2023-11-09T22:37:42.591Z,9.04
2023-11-09T22:40:14.569Z,9.04
2023-11-09T22:42:46.286Z,9.04
2023-11-09T22:45:19.682Z,9.01
2023-11-09T22:47:52.858Z,8.99
2023-11-09T22:50:25.167Z,8.95
2023-11-09T22:52:59.834Z,8.92
2023-11-09T22:55:30.568Z,8.90
2023-11-09T22:58:01.102Z,8.87
2023-11-09T23:00:51.321Z,8.86
2023-11-09T23:03:24.294Z,8.83
2023-11-09T23:05:56.141Z,8.82
2023-11-09T23:08:26.754Z,8.81
2023-11-09T23:10:57.221Z,8.80
2023-11-09T23:13:29.441Z,8.79
2023-11-09T23:16:02.550Z,8.78
2023-11-09T23:18:33.142Z,8.77
2023-11-09T23:21:04.520Z,8.75
2023-11-09T23:23:38.324Z,8.73
2023-11-09T23:26:29.177Z,8.71
2023-11-09T23:28:59.667Z,8.69
2023-11-09T23:31:30.162Z,8.66
2023-11-09T23:34:02.330Z,8.63
2023-11-09T23:36:33.392Z,8.60
2023-11-09T23:39:05.346Z,8.57
2023-11-09T23:41:35.777Z,8.54
2023-11-09T23:44:07.221Z,8.50
2023-11-09T23:46:38.617Z,8.48
2023-11-09T23:49:07.572Z,8.44
2023-11-09T23:51:39.457Z,8.42
2023-11-09T23:54:12.722Z,8.38
2023-11-09T23:56:43.314Z,8.35
2023-11-09T23:59:14.670Z,8.31
